Sanish, North Dakota
Current Conditions -  °F | °C
As of 9:55 PM on Wednesday 17 Dec 2014 (Local Time) from K08D Reporting Station
Overcast Overcast  
Wind Chill:   Ceiling: 1000
Heat Index: 16°   Visibility: 10mi
Dew Point: 16°   Wind: 14mph
Humidity: 100%   Direction: 170°S
Pressure: 30.08"   Gusts: 18mph
Location:  47.9603°N, 102.491°W
Report Text: K08D 180355Z AUTO 17012G16KT 10SM OVC010 M09/M09 A3008 RMK AO2
Loading
Personal Weather Stations






























Interactive Weather Map New forecast layout! Learn more

10-Day Weather Forecast

Advertisements
Track Severe Weather on mobile